Flight Track Log - Related Links

Times and Time Zones

All times are in EST time to prevent confusion due to time zone crossing. See the SKW5631 flight status page for this flight to view local times or setup timezone preferences in your user account.

Time Position Orientation Groundspeed Altitude Reporting Facility
EST Latitude Longitude Course Direction KTS MPH feet Rate Location/Type
Sat 10:08:05 PM 37.6483 -122.3694 156° South 158 182 1,900  Level Oakland Center
Sat 10:09:06 PM 37.6894 -122.3978 331° Northwest 228 262 5,500 3,148 Climbing Oakland Center
Sat 10:10:00 PM 37.2806 -121.9541 133° Southeast  Level Estimated
Sat 10:10:07 PM 37.6328 -122.4306 205° Southwest 248 285 8,300  Level Oakland Center
Sat 10:11:00 PM 37.1674 -121.8145 135° Southeast  Level Estimated
Sat 10:11:07 PM 37.5450 -122.4161 173° South 324 373 11,200  Level Oakland Center
Sat 10:12:00 PM 37.0541 -121.6754 138° Southeast  Level Estimated
Sat 10:12:08 PM 37.4611 -122.3467 147° Southeast 372 428 12,900  Level Oakland Center
Sat 10:13:00 PM 36.9093 -121.5943 156° South  Level FlightAware Approximate
Sat 10:13:09 PM 37.3758 -122.2531 139° Southeast 405 466 15,300  Level Oakland Center
Sat 10:14:09 PM 37.2864 -122.1572 140° Southeast 422 486 17,500 2,033 Climbing Oakland Center
Sat 10:15:10 PM 37.1939 -122.0578 139° Southeast 437 503 19,400 1,623 Climbing Oakland Center
Sat 10:16:11 PM 37.0986 -121.9528 139° Southeast 455 524 20,800 1,339 Climbing Oakland Center
Sat 10:17:11 PM 36.9989 -121.8467 140° Southeast 470 541 22,100 1,190 Climbing Oakland Center
Sat 10:18:12 PM 36.8908 -121.7397 142° Southeast 497 572 23,200 1,131 Climbing Oakland Center
Sat 10:19:13 PM 36.7647 -121.6053 139° Southeast 512 589 24,400 1,279 Climbing Oakland Center
Sat 10:20:14 PM 36.6572 -121.4883 139° Southeast 515 593 25,800 1,190 Climbing Oakland Center
Sat 10:21:14 PM 36.5481 -121.3728 140° Southeast 517 595 26,800 595 Climbing Oakland Center
Sat 10:22:15 PM 36.4378 -121.2558 140° Southeast 523 602 27,000 98 Climbing Oakland Center
Sat 10:23:16 PM 36.3214 -121.1350 140° Southeast 543 625 27,000  Level Oakland Center
Sat 10:24:16 PM 36.2067 -121.0136 139° Southeast 546 628 27,000  Level Oakland Center
Sat 10:25:17 PM 36.0908 -120.8917 140° Southeast 548 631 27,000  Level Oakland Center
Sat 10:26:18 PM 35.9775 -120.7692 139° Southeast 542 624 27,000  Level Oakland Center
Sat 10:27:18 PM 35.8614 -120.6500 140° Southeast 542 624 27,000 -50 Level Oakland Center
Sat 10:28:19 PM 35.7447 -120.5300 140° Southeast 545 627 26,900  Descending Oakland Center
Sat 10:29:20 PM 35.6275 -120.4089 140° Southeast 549 632 27,000 50 Climbing Oakland Center
Sat 10:30:20 PM 35.5081 -120.2872 140° Southeast 549 632 27,000  Level Oakland Center
Sat 10:31:21 PM 35.3853 -120.1617 140° Southeast 554 638 27,000  Level Oakland Center
Sat 10:32:22 PM 35.2639 -120.0397 141° Southeast 558 642 27,000  Level Oakland Center
Sat 10:33:22 PM 35.1442 -119.9175 140° Southeast 557 641 27,000 -1,041 Level Oakland Center
Sat 10:34:23 PM 35.0331 -119.7864 136° Southeast 555 639 24,900 -2,557 Descending Oakland Center
Sat 10:35:24 PM 34.9344 -119.6519 132° Southeast 541 623 21,800 -3,000 Descending Oakland Center
Sat 10:36:25 PM 34.8394 -119.5253 132° Southeast 518 596 18,800 -2,777 Descending Oakland Center
Sat 10:37:25 PM 34.7497 -119.4044 132° Southeast 493 567 16,200 -2,628 Descending Oakland Center
Sat 10:38:26 PM 34.6628 -119.2886 132° Southeast 472 543 13,500 -2,346 Descending Oakland Center
Sat 10:39:38 PM 34.5525 -119.1442 133° Southeast 442 509 11,000 -1,128 Descending Los Angeles Center
Sat 10:40:39 PM 34.4992 -119.0708 131° Southeast 363 418 11,000 -341 Level Los Angeles Center
Sat 10:41:41 PM 34.4200 -118.9650 132° Southeast 352 405 10,300 -1,220 Descending Los Angeles Center
Sat 10:42:42 PM 34.3564 -118.8828 133° Southeast 334 384 8,500 -1,770 Descending Los Angeles Center
Sat 10:43:43 PM 34.2856 -118.8225 145° Southeast 310 357 6,700 -1,230 Descending Los Angeles Center
Sat 10:44:44 PM 34.2322 -118.7550 134° Southeast 285 328 6,000 -639 Descending Los Angeles Center
Sat 10:45:45 PM 34.1919 -118.6792 123° Southeast 274 315 5,400 -444 Descending Los Angeles Center
Sat 10:46:59 PM 34.1500 -118.5667 114° Southeast 275 316 5,000 -400 Descending Southern California TRACON
Sat 10:48:00 PM 34.1333 -118.4833 104° East 240 276 4,500 -545 Descending Southern California TRACON
Sat 10:49:00 PM 34.1333 -118.4167 90° East 200 230 3,900 -818 Descending Southern California TRACON
Sat 10:49:50 PM 34.1300 -118.3686 95° East 214 246 3,000 -1,405 Descending Los Angeles Center
Sat 10:50:51 PM 34.1633 -118.3467 29° Northeast 151 174 1,300 -984 Descending Los Angeles Center
Sat 10:51:52 PM 34.1903 -118.3547 346° North 133 153 1,000 -295 Descending Los Angeles Center

Login

Don't have an account? Register now (free) for customized features, flight alerts, and more!